ADDS TAF Data INFO
IDs: Format: Raw Decoded Include METARs

Data at: 1026 UTC 16 Aug 2018

KEWN 160532Z 1606/1706 VRB03KT P6SM SCT100 SCT250
  FM161900 20007KT P6SM SCT040 SCT250
  FM170000 VRB03KT P6SM SCT250